sensor_id;sensor_type;location;lat;lon;timestamp;P1;durP1;ratioP1;P2;durP2;ratioP2
50555;SDS011;36508;52.512;13.450;2022-10-23T00:01:32;9.53;;;8.57;;
50555;SDS011;36508;52.512;13.450;2022-10-23T00:04:00;8.57;;;7.87;;
50555;SDS011;36508;52.512;13.450;2022-10-23T00:06:27;8.93;;;8.00;;
50555;SDS011;36508;52.512;13.450;2022-10-23T00:08:54;7.93;;;7.27;;
50555;SDS011;36508;52.512;13.450;2022-10-23T00:11:21;13.83;;;8.63;;
50555;SDS011;36508;52.512;13.450;2022-10-23T00:13:49;8.57;;;7.73;;
50555;SDS011;36508;52.512;13.450;2022-10-23T00:16:15;8.57;;;7.20;;
50555;SDS011;36508;52.512;13.450;2022-10-23T00:18:41;8.60;;;7.90;;
50555;SDS011;36508;52.512;13.450;2022-10-23T00:21:07;9.10;;;8.27;;
50555;SDS011;36508;52.512;13.450;2022-10-23T00:23:34;9.17;;;8.50;;
50555;SDS011;36508;52.512;13.450;2022-10-23T00:26:00;8.30;;;7.27;;
50555;SDS011;36508;52.512;13.450;2022-10-23T00:28:26;10.17;;;8.57;;
50555;SDS011;36508;52.512;13.450;2022-10-23T00:30:52;8.13;;;7.20;;
50555;SDS011;36508;52.512;13.450;2022-10-23T00:33:17;12.03;;;9.23;;
50555;SDS011;36508;52.512;13.450;2022-10-23T00:35:43;8.80;;;7.90;;
50555;SDS011;36508;52.512;13.450;2022-10-23T00:38:09;11.73;;;8.20;;
50555;SDS011;36508;52.512;13.450;2022-10-23T00:40:36;9.60;;;8.70;;
50555;SDS011;36508;52.512;13.450;2022-10-23T00:43:03;9.83;;;8.63;;
50555;SDS011;36508;52.512;13.450;2022-10-23T00:45:31;8.50;;;7.90;;
50555;SDS011;36508;52.512;13.450;2022-10-23T00:47:58;9.03;;;8.30;;
50555;SDS011;36508;52.512;13.450;2022-10-23T00:50:25;9.20;;;8.50;;
50555;SDS011;36508;52.512;13.450;2022-10-23T00:52:52;9.93;;;8.87;;
50555;SDS011;36508;52.512;13.450;2022-10-23T00:55:20;8.70;;;7.80;;
50555;SDS011;36508;52.512;13.450;2022-10-23T00:57:47;10.07;;;9.10;;
50555;SDS011;36508;52.512;13.450;2022-10-23T01:00:16;9.00;;;8.20;;
50555;SDS011;36508;52.512;13.450;2022-10-23T01:02:47;8.37;;;7.83;;
50555;SDS011;36508;52.512;13.450;2022-10-23T01:05:13;8.30;;;7.70;;
50555;SDS011;36508;52.512;13.450;2022-10-23T01:07:42;8.27;;;7.30;;
50555;SDS011;36508;52.512;13.450;2022-10-23T01:13:03;13.80;;;12.50;;
50555;SDS011;36508;52.512;13.450;2022-10-23T01:15:36;8.27;;;7.40;;
50555;SDS011;36508;52.512;13.450;2022-10-23T01:20:52;12.77;;;11.27;;
50555;SDS011;36508;52.512;13.450;2022-10-23T01:23:51;17.47;;;12.73;;
50555;SDS011;36508;52.512;13.450;2022-10-23T01:31:54;12.03;;;9.83;;
50555;SDS011;36508;52.512;13.450;2022-10-23T01:34:40;11.63;;;7.87;;
50555;SDS011;36508;52.512;13.450;2022-10-23T01:37:15;12.13;;;8.13;;
50555;SDS011;36508;52.512;13.450;2022-10-23T01:39:47;11.13;;;9.87;;
50555;SDS011;36508;52.512;13.450;2022-10-23T01:42:16;8.20;;;7.23;;
50555;SDS011;36508;52.512;13.450;2022-10-23T01:47:14;9.73;;;8.83;;
50555;SDS011;36508;52.512;13.450;2022-10-23T01:49:44;8.43;;;7.60;;
50555;SDS011;36508;52.512;13.450;2022-10-23T01:52:12;9.77;;;8.80;;
50555;SDS011;36508;52.512;13.450;2022-10-23T01:54:40;10.53;;;9.63;;
50555;SDS011;36508;52.512;13.450;2022-10-23T01:57:09;10.03;;;9.20;;
50555;SDS011;36508;52.512;13.450;2022-10-23T01:59:38;9.83;;;9.03;;
50555;SDS011;36508;52.512;13.450;2022-10-23T02:02:07;10.60;;;8.47;;
50555;SDS011;36508;52.512;13.450;2022-10-23T02:04:37;11.10;;;10.03;;
50555;SDS011;36508;52.512;13.450;2022-10-23T02:07:06;8.37;;;7.77;;
50555;SDS011;36508;52.512;13.450;2022-10-23T02:09:32;9.03;;;8.33;;
50555;SDS011;36508;52.512;13.450;2022-10-23T02:12:03;8.57;;;7.87;;
50555;SDS011;36508;52.512;13.450;2022-10-23T02:14:35;10.80;;;8.50;;
50555;SDS011;36508;52.512;13.450;2022-10-23T02:17:19;10.07;;;9.17;;
50555;SDS011;36508;52.512;13.450;2022-10-23T02:19:59;8.50;;;7.87;;
50555;SDS011;36508;52.512;13.450;2022-10-23T02:22:41;8.57;;;7.90;;
50555;SDS011;36508;52.512;13.450;2022-10-23T02:25:27;10.50;;;9.47;;
50555;SDS011;36508;52.512;13.450;2022-10-23T02:28:02;15.00;;;9.67;;
50555;SDS011;36508;52.512;13.450;2022-10-23T02:30:31;10.67;;;9.57;;
50555;SDS011;36508;52.512;13.450;2022-10-23T02:32:59;9.13;;;8.43;;
50555;SDS011;36508;52.512;13.450;2022-10-23T02:35:26;9.03;;;8.33;;
50555;SDS011;36508;52.512;13.450;2022-10-23T02:37:53;9.70;;;8.20;;
50555;SDS011;36508;52.512;13.450;2022-10-23T02:40:19;8.90;;;8.00;;
50555;SDS011;36508;52.512;13.450;2022-10-23T02:43:07;9.43;;;8.50;;
50555;SDS011;36508;52.512;13.450;2022-10-23T02:45:46;8.73;;;7.90;;
50555;SDS011;36508;52.512;13.450;2022-10-23T02:48:21;8.40;;;7.80;;
50555;SDS011;36508;52.512;13.450;2022-10-23T02:51:06;8.97;;;8.07;;
50555;SDS011;36508;52.512;13.450;2022-10-23T02:56:22;9.03;;;7.80;;
50555;SDS011;36508;52.512;13.450;2022-10-23T02:59:09;12.03;;;7.33;;
50555;SDS011;36508;52.512;13.450;2022-10-23T03:04:16;22.07;;;16.23;;
50555;SDS011;36508;52.512;13.450;2022-10-23T03:06:45;21.40;;;16.57;;
50555;SDS011;36508;52.512;13.450;2022-10-23T03:09:11;20.30;;;16.83;;
50555;SDS011;36508;52.512;13.450;2022-10-23T03:11:36;12.80;;;9.70;;
50555;SDS011;36508;52.512;13.450;2022-10-23T03:14:02;12.63;;;9.10;;
50555;SDS011;36508;52.512;13.450;2022-10-23T03:16:27;18.90;;;16.23;;
50555;SDS011;36508;52.512;13.450;2022-10-23T03:18:53;10.80;;;9.70;;
50555;SDS011;36508;52.512;13.450;2022-10-23T03:21:19;9.17;;;8.30;;
50555;SDS011;36508;52.512;13.450;2022-10-23T03:23:44;10.37;;;9.40;;
50555;SDS011;36508;52.512;13.450;2022-10-23T03:26:10;12.47;;;11.47;;
50555;SDS011;36508;52.512;13.450;2022-10-23T03:28:35;11.20;;;10.20;;
50555;SDS011;36508;52.512;13.450;2022-10-23T03:31:01;11.70;;;10.50;;
50555;SDS011;36508;52.512;13.450;2022-10-23T03:33:28;10.27;;;9.23;;
50555;SDS011;36508;52.512;13.450;2022-10-23T03:35:56;7.03;;;6.47;;
50555;SDS011;36508;52.512;13.450;2022-10-23T03:38:22;10.50;;;9.57;;
50555;SDS011;36508;52.512;13.450;2022-10-23T03:40:47;24.13;;;20.20;;
50555;SDS011;36508;52.512;13.450;2022-10-23T03:43:13;9.40;;;8.60;;
50555;SDS011;36508;52.512;13.450;2022-10-23T03:45:38;8.70;;;8.00;;
50555;SDS011;36508;52.512;13.450;2022-10-23T03:48:04;13.37;;;10.13;;
50555;SDS011;36508;52.512;13.450;2022-10-23T03:50:30;10.07;;;9.07;;
50555;SDS011;36508;52.512;13.450;2022-10-23T03:52:55;10.23;;;9.43;;
50555;SDS011;36508;52.512;13.450;2022-10-23T03:55:21;11.40;;;9.57;;
50555;SDS011;36508;52.512;13.450;2022-10-23T03:57:47;8.83;;;8.13;;
50555;SDS011;36508;52.512;13.450;2022-10-23T04:00:12;8.57;;;7.80;;
50555;SDS011;36508;52.512;13.450;2022-10-23T04:02:38;9.67;;;8.60;;
50555;SDS011;36508;52.512;13.450;2022-10-23T04:05:03;14.20;;;9.20;;
50555;SDS011;36508;52.512;13.450;2022-10-23T04:07:29;11.37;;;9.17;;
50555;SDS011;36508;52.512;13.450;2022-10-23T04:09:55;10.50;;;9.50;;
50555;SDS011;36508;52.512;13.450;2022-10-23T04:12:20;10.73;;;9.47;;
50555;SDS011;36508;52.512;13.450;2022-10-23T04:14:46;8.80;;;8.07;;
50555;SDS011;36508;52.512;13.450;2022-10-23T04:17:11;8.30;;;7.60;;
50555;SDS011;36508;52.512;13.450;2022-10-23T04:19:36;9.80;;;8.40;;
50555;SDS011;36508;52.512;13.450;2022-10-23T04:22:02;9.53;;;8.73;;
50555;SDS011;36508;52.512;13.450;2022-10-23T04:24:27;10.27;;;9.03;;
50555;SDS011;36508;52.512;13.450;2022-10-23T04:26:53;8.73;;;7.93;;
50555;SDS011;36508;52.512;13.450;2022-10-23T04:29:19;9.40;;;8.47;;
50555;SDS011;36508;52.512;13.450;2022-10-23T04:31:47;10.80;;;8.67;;
50555;SDS011;36508;52.512;13.450;2022-10-23T04:34:13;8.57;;;7.97;;
50555;SDS011;36508;52.512;13.450;2022-10-23T04:36:38;14.63;;;9.30;;
50555;SDS011;36508;52.512;13.450;2022-10-23T04:39:04;8.80;;;7.90;;
50555;SDS011;36508;52.512;13.450;2022-10-23T04:41:29;10.30;;;8.90;;
50555;SDS011;36508;52.512;13.450;2022-10-23T04:43:55;9.93;;;8.97;;
50555;SDS011;36508;52.512;13.450;2022-10-23T04:46:21;9.43;;;8.73;;
50555;SDS011;36508;52.512;13.450;2022-10-23T04:48:46;13.33;;;12.13;;
50555;SDS011;36508;52.512;13.450;2022-10-23T04:51:11;17.57;;;12.00;;
50555;SDS011;36508;52.512;13.450;2022-10-23T04:53:37;8.60;;;7.53;;
50555;SDS011;36508;52.512;13.450;2022-10-23T04:56:03;9.60;;;8.80;;
50555;SDS011;36508;52.512;13.450;2022-10-23T04:58:29;11.23;;;10.27;;
50555;SDS011;36508;52.512;13.450;2022-10-23T05:00:55;12.20;;;10.93;;
50555;SDS011;36508;52.512;13.450;2022-10-23T05:03:21;10.50;;;9.60;;
50555;SDS011;36508;52.512;13.450;2022-10-23T05:05:47;12.00;;;10.87;;
50555;SDS011;36508;52.512;13.450;2022-10-23T05:08:13;11.43;;;10.37;;
50555;SDS011;36508;52.512;13.450;2022-10-23T05:10:39;10.40;;;9.40;;
50555;SDS011;36508;52.512;13.450;2022-10-23T05:13:05;11.53;;;9.80;;
50555;SDS011;36508;52.512;13.450;2022-10-23T05:15:31;10.50;;;9.50;;
50555;SDS011;36508;52.512;13.450;2022-10-23T05:17:58;16.53;;;11.17;;
50555;SDS011;36508;52.512;13.450;2022-10-23T05:20:27;11.27;;;10.27;;
50555;SDS011;36508;52.512;13.450;2022-10-23T05:22:57;11.17;;;10.30;;
50555;SDS011;36508;52.512;13.450;2022-10-23T05:25:24;12.40;;;10.53;;
50555;SDS011;36508;52.512;13.450;2022-10-23T05:27:50;11.90;;;10.40;;
50555;SDS011;36508;52.512;13.450;2022-10-23T05:30:16;13.77;;;12.50;;
50555;SDS011;36508;52.512;13.450;2022-10-23T05:32:42;14.40;;;13.03;;
50555;SDS011;36508;52.512;13.450;2022-10-23T05:35:08;20.33;;;13.40;;
50555;SDS011;36508;52.512;13.450;2022-10-23T05:37:51;13.90;;;12.50;;
50555;SDS011;36508;52.512;13.450;2022-10-23T05:40:18;15.67;;;12.30;;
50555;SDS011;36508;52.512;13.450;2022-10-23T05:42:44;14.27;;;12.43;;
50555;SDS011;36508;52.512;13.450;2022-10-23T05:45:09;19.70;;;11.50;;
50555;SDS011;36508;52.512;13.450;2022-10-23T05:47:35;12.70;;;11.40;;
50555;SDS011;36508;52.512;13.450;2022-10-23T05:50:01;12.90;;;11.57;;
50555;SDS011;36508;52.512;13.450;2022-10-23T05:52:26;13.13;;;12.00;;
50555;SDS011;36508;52.512;13.450;2022-10-23T05:54:54;16.47;;;11.83;;
50555;SDS011;36508;52.512;13.450;2022-10-23T05:57:20;11.50;;;10.40;;
50555;SDS011;36508;52.512;13.450;2022-10-23T05:59:45;12.60;;;11.50;;
50555;SDS011;36508;52.512;13.450;2022-10-23T06:02:10;13.67;;;12.27;;
50555;SDS011;36508;52.512;13.450;2022-10-23T06:04:36;11.97;;;10.77;;
50555;SDS011;36508;52.512;13.450;2022-10-23T06:07:02;12.10;;;11.00;;
50555;SDS011;36508;52.512;13.450;2022-10-23T06:09:28;13.57;;;10.27;;
50555;SDS011;36508;52.512;13.450;2022-10-23T06:11:54;12.87;;;11.83;;
50555;SDS011;36508;52.512;13.450;2022-10-23T06:14:19;10.90;;;10.00;;
50555;SDS011;36508;52.512;13.450;2022-10-23T06:16:45;11.13;;;10.03;;
50555;SDS011;36508;52.512;13.450;2022-10-23T06:19:11;11.80;;;10.60;;
50555;SDS011;36508;52.512;13.450;2022-10-23T06:21:37;10.67;;;9.87;;
50555;SDS011;36508;52.512;13.450;2022-10-23T06:24:04;12.00;;;10.93;;
50555;SDS011;36508;52.512;13.450;2022-10-23T06:26:30;14.97;;;12.30;;
50555;SDS011;36508;52.512;13.450;2022-10-23T06:31:24;13.30;;;11.13;;
50555;SDS011;36508;52.512;13.450;2022-10-23T06:33:50;12.90;;;11.70;;
50555;SDS011;36508;52.512;13.450;2022-10-23T06:36:16;12.93;;;11.63;;
50555;SDS011;36508;52.512;13.450;2022-10-23T06:38:42;12.10;;;11.20;;
50555;SDS011;36508;52.512;13.450;2022-10-23T06:41:15;12.77;;;11.60;;
50555;SDS011;36508;52.512;13.450;2022-10-23T06:43:42;13.40;;;12.00;;
50555;SDS011;36508;52.512;13.450;2022-10-23T06:46:07;14.17;;;11.90;;
50555;SDS011;36508;52.512;13.450;2022-10-23T06:48:34;13.47;;;12.10;;
50555;SDS011;36508;52.512;13.450;2022-10-23T06:51:05;17.30;;;12.77;;
50555;SDS011;36508;52.512;13.450;2022-10-23T06:53:32;18.87;;;17.00;;
50555;SDS011;36508;52.512;13.450;2022-10-23T06:55:58;16.03;;;13.97;;
50555;SDS011;36508;52.512;13.450;2022-10-23T06:58:25;15.03;;;11.77;;
50555;SDS011;36508;52.512;13.450;2022-10-23T07:00:50;12.97;;;10.90;;
50555;SDS011;36508;52.512;13.450;2022-10-23T07:03:16;13.97;;;12.53;;
50555;SDS011;36508;52.512;13.450;2022-10-23T07:05:41;13.47;;;12.20;;
50555;SDS011;36508;52.512;13.450;2022-10-23T07:08:08;12.87;;;11.87;;
50555;SDS011;36508;52.512;13.450;2022-10-23T07:10:34;14.50;;;13.10;;
50555;SDS011;36508;52.512;13.450;2022-10-23T07:13:00;12.50;;;11.03;;
50555;SDS011;36508;52.512;13.450;2022-10-23T07:15:27;12.47;;;11.27;;
50555;SDS011;36508;52.512;13.450;2022-10-23T07:17:53;13.43;;;12.23;;
50555;SDS011;36508;52.512;13.450;2022-10-23T07:20:19;14.30;;;10.60;;
50555;SDS011;36508;52.512;13.450;2022-10-23T07:22:51;12.77;;;11.60;;
50555;SDS011;36508;52.512;13.450;2022-10-23T07:25:20;12.37;;;11.10;;
50555;SDS011;36508;52.512;13.450;2022-10-23T07:27:47;13.70;;;11.70;;
50555;SDS011;36508;52.512;13.450;2022-10-23T07:30:12;12.10;;;11.20;;
50555;SDS011;36508;52.512;13.450;2022-10-23T07:32:39;13.90;;;12.00;;
50555;SDS011;36508;52.512;13.450;2022-10-23T07:35:04;14.93;;;13.80;;
50555;SDS011;36508;52.512;13.450;2022-10-23T07:37:30;13.30;;;10.93;;
50555;SDS011;36508;52.512;13.450;2022-10-23T07:39:56;12.43;;;11.53;;
50555;SDS011;36508;52.512;13.450;2022-10-23T07:42:21;12.60;;;11.50;;
50555;SDS011;36508;52.512;13.450;2022-10-23T07:44:47;13.80;;;12.80;;
50555;SDS011;36508;52.512;13.450;2022-10-23T07:47:12;19.60;;;17.10;;
50555;SDS011;36508;52.512;13.450;2022-10-23T07:49:38;15.50;;;14.20;;
50555;SDS011;36508;52.512;13.450;2022-10-23T07:52:04;11.73;;;10.83;;
50555;SDS011;36508;52.512;13.450;2022-10-23T07:54:30;12.97;;;11.90;;
50555;SDS011;36508;52.512;13.450;2022-10-23T07:56:55;10.70;;;10.00;;
50555;SDS011;36508;52.512;13.450;2022-10-23T07:59:23;11.13;;;9.97;;
50555;SDS011;36508;52.512;13.450;2022-10-23T08:01:49;11.87;;;10.97;;
50555;SDS011;36508;52.512;13.450;2022-10-23T08:04:15;11.17;;;10.37;;
50555;SDS011;36508;52.512;13.450;2022-10-23T08:06:40;10.90;;;9.83;;
50555;SDS011;36508;52.512;13.450;2022-10-23T08:09:06;12.43;;;11.43;;
50555;SDS011;36508;52.512;13.450;2022-10-23T08:11:31;12.67;;;11.57;;
50555;SDS011;36508;52.512;13.450;2022-10-23T08:29:31;10.63;;;9.73;;
50555;SDS011;36508;52.512;13.450;2022-10-23T08:31:57;9.80;;;9.10;;
50555;SDS011;36508;52.512;13.450;2022-10-23T08:34:22;11.60;;;10.50;;
50555;SDS011;36508;52.512;13.450;2022-10-23T08:36:48;11.83;;;10.80;;
50555;SDS011;36508;52.512;13.450;2022-10-23T08:39:14;11.03;;;9.63;;
50555;SDS011;36508;52.512;13.450;2022-10-23T08:41:41;9.73;;;8.83;;
50555;SDS011;36508;52.512;13.450;2022-10-23T08:46:54;12.10;;;11.10;;
50555;SDS011;36508;52.512;13.450;2022-10-23T08:49:50;11.10;;;10.10;;
50555;SDS011;36508;52.512;13.450;2022-10-23T08:52:24;10.00;;;9.30;;
50555;SDS011;36508;52.512;13.450;2022-10-23T08:55:04;11.93;;;10.93;;
50555;SDS011;36508;52.512;13.450;2022-10-23T09:00:17;10.20;;;9.40;;
50555;SDS011;36508;52.512;13.450;2022-10-23T09:02:47;10.40;;;9.60;;
50555;SDS011;36508;52.512;13.450;2022-10-23T09:05:18;10.17;;;9.30;;
50555;SDS011;36508;52.512;13.450;2022-10-23T09:10:36;10.57;;;9.47;;
50555;SDS011;36508;52.512;13.450;2022-10-23T09:16:17;8.63;;;7.13;;
50555;SDS011;36508;52.512;13.450;2022-10-23T09:19:09;10.37;;;9.43;;
50555;SDS011;36508;52.512;13.450;2022-10-23T09:21:38;7.87;;;7.17;;
50555;SDS011;36508;52.512;13.450;2022-10-23T09:24:04;8.63;;;7.80;;
50555;SDS011;36508;52.512;13.450;2022-10-23T09:26:29;7.33;;;6.80;;
50555;SDS011;36508;52.512;13.450;2022-10-23T09:29:05;9.30;;;7.17;;
50555;SDS011;36508;52.512;13.450;2022-10-23T09:31:51;8.00;;;7.40;;
50555;SDS011;36508;52.512;13.450;2022-10-23T09:34:19;9.43;;;8.73;;
50555;SDS011;36508;52.512;13.450;2022-10-23T09:36:48;7.20;;;6.43;;
50555;SDS011;36508;52.512;13.450;2022-10-23T09:39:23;6.90;;;6.20;;
50555;SDS011;36508;52.512;13.450;2022-10-23T09:41:51;10.30;;;6.10;;
50555;SDS011;36508;52.512;13.450;2022-10-23T09:44:19;8.07;;;5.43;;
50555;SDS011;36508;52.512;13.450;2022-10-23T09:46:46;7.20;;;6.73;;
50555;SDS011;36508;52.512;13.450;2022-10-23T09:51:53;11.20;;;6.03;;
50555;SDS011;36508;52.512;13.450;2022-10-23T09:54:25;6.90;;;5.50;;
50555;SDS011;36508;52.512;13.450;2022-10-23T09:56:53;7.03;;;6.37;;
50555;SDS011;36508;52.512;13.450;2022-10-23T09:59:22;6.53;;;5.53;;
50555;SDS011;36508;52.512;13.450;2022-10-23T10:01:58;7.33;;;6.73;;
50555;SDS011;36508;52.512;13.450;2022-10-23T10:04:35;6.77;;;6.17;;
50555;SDS011;36508;52.512;13.450;2022-10-23T10:07:12;6.90;;;5.60;;
50555;SDS011;36508;52.512;13.450;2022-10-23T10:09:44;5.00;;;4.70;;
50555;SDS011;36508;52.512;13.450;2022-10-23T10:15:16;5.50;;;5.00;;
50555;SDS011;36508;52.512;13.450;2022-10-23T10:20:41;4.77;;;4.47;;
50555;SDS011;36508;52.512;13.450;2022-10-23T10:23:29;3.93;;;2.90;;
50555;SDS011;36508;52.512;13.450;2022-10-23T10:28:55;4.23;;;3.93;;
50555;SDS011;36508;52.512;13.450;2022-10-23T10:31:50;7.00;;;3.80;;
50555;SDS011;36508;52.512;13.450;2022-10-23T10:34:54;5.60;;;5.10;;
50555;SDS011;36508;52.512;13.450;2022-10-23T10:37:33;7.30;;;5.13;;
50555;SDS011;36508;52.512;13.450;2022-10-23T10:43:05;7.30;;;3.80;;
50555;SDS011;36508;52.512;13.450;2022-10-23T10:45:41;6.00;;;5.13;;
50555;SDS011;36508;52.512;13.450;2022-10-23T10:48:27;5.33;;;4.83;;
50555;SDS011;36508;52.512;13.450;2022-10-23T10:51:06;5.30;;;4.80;;
50555;SDS011;36508;52.512;13.450;2022-10-23T10:53:50;4.87;;;4.50;;
50555;SDS011;36508;52.512;13.450;2022-10-23T10:56:19;5.33;;;4.20;;
50555;SDS011;36508;52.512;13.450;2022-10-23T10:58:57;5.00;;;4.70;;
50555;SDS011;36508;52.512;13.450;2022-10-23T11:01:27;5.87;;;4.40;;
50555;SDS011;36508;52.512;13.450;2022-10-23T11:04:00;6.40;;;5.27;;
50555;SDS011;36508;52.512;13.450;2022-10-23T11:06:34;5.73;;;5.30;;
50555;SDS011;36508;52.512;13.450;2022-10-23T11:09:04;7.20;;;6.53;;
50555;SDS011;36508;52.512;13.450;2022-10-23T11:11:39;5.17;;;4.87;;
50555;SDS011;36508;52.512;13.450;2022-10-23T11:14:06;7.40;;;6.30;;
50555;SDS011;36508;52.512;13.450;2022-10-23T11:16:39;5.73;;;5.20;;
50555;SDS011;36508;52.512;13.450;2022-10-23T11:19:17;6.23;;;5.83;;
50555;SDS011;36508;52.512;13.450;2022-10-23T11:22:08;6.83;;;6.13;;
50555;SDS011;36508;52.512;13.450;2022-10-23T11:38:37;6.73;;;6.07;;
50555;SDS011;36508;52.512;13.450;2022-10-23T11:41:05;12.23;;;11.23;;
50555;SDS011;36508;52.512;13.450;2022-10-23T11:43:49;4.43;;;4.20;;
50555;SDS011;36508;52.512;13.450;2022-10-23T11:48:51;5.93;;;5.43;;
50555;SDS011;36508;52.512;13.450;2022-10-23T11:56:34;5.77;;;4.27;;
50555;SDS011;36508;52.512;13.450;2022-10-23T11:59:16;7.80;;;6.40;;
50555;SDS011;36508;52.512;13.450;2022-10-23T12:01:50;4.07;;;3.63;;
50555;SDS011;36508;52.512;13.450;2022-10-23T12:04:19;7.40;;;5.00;;
50555;SDS011;36508;52.512;13.450;2022-10-23T12:06:59;2.77;;;2.57;;
50555;SDS011;36508;52.512;13.450;2022-10-23T12:12:01;3.10;;;2.90;;
50555;SDS011;36508;52.512;13.450;2022-10-23T12:14:39;3.87;;;3.60;;
50555;SDS011;36508;52.512;13.450;2022-10-23T12:19:53;7.83;;;4.07;;
50555;SDS011;36508;52.512;13.450;2022-10-23T12:25:25;5.47;;;3.60;;
50555;SDS011;36508;52.512;13.450;2022-10-23T12:33:48;4.33;;;3.63;;
50555;SDS011;36508;52.512;13.450;2022-10-23T12:39:25;8.87;;;3.57;;
50555;SDS011;36508;52.512;13.450;2022-10-23T12:42:05;4.00;;;3.30;;
50555;SDS011;36508;52.512;13.450;2022-10-23T12:44:45;5.80;;;4.70;;
50555;SDS011;36508;52.512;13.450;2022-10-23T12:47:21;6.97;;;6.07;;
50555;SDS011;36508;52.512;13.450;2022-10-23T12:49:47;5.33;;;4.60;;
50555;SDS011;36508;52.512;13.450;2022-10-23T12:52:15;5.23;;;4.00;;
50555;SDS011;36508;52.512;13.450;2022-10-23T12:54:42;4.70;;;4.40;;
50555;SDS011;36508;52.512;13.450;2022-10-23T12:57:27;6.27;;;4.27;;
50555;SDS011;36508;52.512;13.450;2022-10-23T12:59:55;3.90;;;3.60;;
50555;SDS011;36508;52.512;13.450;2022-10-23T13:02:25;6.07;;;5.67;;
50555;SDS011;36508;52.512;13.450;2022-10-23T13:04:53;6.70;;;4.10;;
50555;SDS011;36508;52.512;13.450;2022-10-23T13:07:25;8.87;;;7.47;;
50555;SDS011;36508;52.512;13.450;2022-10-23T13:09:52;4.77;;;4.40;;
50555;SDS011;36508;52.512;13.450;2022-10-23T13:12:23;6.77;;;4.60;;
50555;SDS011;36508;52.512;13.450;2022-10-23T13:14:55;7.20;;;3.80;;
50555;SDS011;36508;52.512;13.450;2022-10-23T13:20:21;6.03;;;4.03;;
50555;SDS011;36508;52.512;13.450;2022-10-23T13:22:56;4.33;;;3.87;;
50555;SDS011;36508;52.512;13.450;2022-10-23T13:25:31;6.80;;;6.20;;
50555;SDS011;36508;52.512;13.450;2022-10-23T13:28:02;4.20;;;3.80;;
50555;SDS011;36508;52.512;13.450;2022-10-23T13:30:39;5.37;;;4.93;;
50555;SDS011;36508;52.512;13.450;2022-10-23T13:35:39;5.13;;;3.97;;
50555;SDS011;36508;52.512;13.450;2022-10-23T13:38:08;4.97;;;4.47;;
50555;SDS011;36508;52.512;13.450;2022-10-23T13:40:34;28.10;;;7.60;;
50555;SDS011;36508;52.512;13.450;2022-10-23T13:43:00;4.57;;;4.23;;
50555;SDS011;36508;52.512;13.450;2022-10-23T13:45:26;6.87;;;5.17;;
50555;SDS011;36508;52.512;13.450;2022-10-23T13:47:51;8.63;;;6.83;;
50555;SDS011;36508;52.512;13.450;2022-10-23T13:50:17;3.07;;;2.77;;
50555;SDS011;36508;52.512;13.450;2022-10-23T13:52:44;9.67;;;3.17;;
50555;SDS011;36508;52.512;13.450;2022-10-23T13:55:18;6.60;;;5.33;;
50555;SDS011;36508;52.512;13.450;2022-10-23T13:57:46;5.80;;;5.33;;
50555;SDS011;36508;52.512;13.450;2022-10-23T14:00:12;10.33;;;4.47;;
50555;SDS011;36508;52.512;13.450;2022-10-23T14:02:39;8.67;;;4.50;;
50555;SDS011;36508;52.512;13.450;2022-10-23T14:05:04;8.47;;;5.03;;
50555;SDS011;36508;52.512;13.450;2022-10-23T14:07:32;5.20;;;4.10;;
50555;SDS011;36508;52.512;13.450;2022-10-23T14:09:58;7.63;;;6.03;;
50555;SDS011;36508;52.512;13.450;2022-10-23T14:12:23;4.83;;;3.97;;
50555;SDS011;36508;52.512;13.450;2022-10-23T14:14:49;4.17;;;3.23;;
50555;SDS011;36508;52.512;13.450;2022-10-23T14:17:15;6.10;;;3.90;;
50555;SDS011;36508;52.512;13.450;2022-10-23T14:19:41;4.03;;;3.63;;
50555;SDS011;36508;52.512;13.450;2022-10-23T14:22:07;4.43;;;4.03;;
50555;SDS011;36508;52.512;13.450;2022-10-23T14:24:32;4.77;;;4.30;;
50555;SDS011;36508;52.512;13.450;2022-10-23T14:26:58;11.00;;;5.50;;
50555;SDS011;36508;52.512;13.450;2022-10-23T14:29:24;6.93;;;5.47;;
50555;SDS011;36508;52.512;13.450;2022-10-23T14:31:49;10.27;;;4.27;;
50555;SDS011;36508;52.512;13.450;2022-10-23T14:34:15;4.90;;;4.40;;
50555;SDS011;36508;52.512;13.450;2022-10-23T14:36:40;6.57;;;4.57;;
50555;SDS011;36508;52.512;13.450;2022-10-23T14:39:06;7.23;;;6.60;;
50555;SDS011;36508;52.512;13.450;2022-10-23T14:41:31;7.23;;;6.57;;
50555;SDS011;36508;52.512;13.450;2022-10-23T14:43:57;6.23;;;4.57;;
50555;SDS011;36508;52.512;13.450;2022-10-23T14:46:23;6.13;;;4.40;;
50555;SDS011;36508;52.512;13.450;2022-10-23T14:48:48;9.30;;;6.23;;
50555;SDS011;36508;52.512;13.450;2022-10-23T14:51:17;14.33;;;10.70;;
50555;SDS011;36508;52.512;13.450;2022-10-23T14:53:44;11.90;;;6.13;;
50555;SDS011;36508;52.512;13.450;2022-10-23T14:56:11;9.00;;;4.60;;
50555;SDS011;36508;52.512;13.450;2022-10-23T14:58:36;8.20;;;4.53;;
50555;SDS011;36508;52.512;13.450;2022-10-23T15:01:02;6.63;;;4.57;;
50555;SDS011;36508;52.512;13.450;2022-10-23T15:03:28;5.47;;;3.37;;
50555;SDS011;36508;52.512;13.450;2022-10-23T15:05:54;5.60;;;3.87;;
50555;SDS011;36508;52.512;13.450;2022-10-23T15:08:20;5.50;;;3.73;;
50555;SDS011;36508;52.512;13.450;2022-10-23T15:10:46;4.60;;;3.73;;
50555;SDS011;36508;52.512;13.450;2022-10-23T15:13:11;5.83;;;4.90;;
50555;SDS011;36508;52.512;13.450;2022-10-23T15:15:37;5.60;;;4.53;;
50555;SDS011;36508;52.512;13.450;2022-10-23T15:18:03;7.93;;;7.43;;
50555;SDS011;36508;52.512;13.450;2022-10-23T15:20:28;12.23;;;6.63;;
50555;SDS011;36508;52.512;13.450;2022-10-23T15:22:54;6.37;;;5.87;;
50555;SDS011;36508;52.512;13.450;2022-10-23T15:25:20;6.50;;;5.90;;
50555;SDS011;36508;52.512;13.450;2022-10-23T15:27:45;6.90;;;6.00;;
50555;SDS011;36508;52.512;13.450;2022-10-23T15:30:14;11.60;;;6.87;;
50555;SDS011;36508;52.512;13.450;2022-10-23T15:32:39;9.53;;;6.43;;
50555;SDS011;36508;52.512;13.450;2022-10-23T15:35:05;6.70;;;6.07;;
50555;SDS011;36508;52.512;13.450;2022-10-23T15:37:31;12.73;;;7.20;;
50555;SDS011;36508;52.512;13.450;2022-10-23T15:39:57;8.87;;;6.00;;
50555;SDS011;36508;52.512;13.450;2022-10-23T15:42:22;6.53;;;6.10;;
50555;SDS011;36508;52.512;13.450;2022-10-23T15:44:48;6.10;;;5.13;;
50555;SDS011;36508;52.512;13.450;2022-10-23T15:47:14;8.17;;;5.90;;
50555;SDS011;36508;52.512;13.450;2022-10-23T15:49:42;12.67;;;6.60;;
50555;SDS011;36508;52.512;13.450;2022-10-23T15:52:08;9.23;;;5.23;;
50555;SDS011;36508;52.512;13.450;2022-10-23T15:54:34;8.50;;;7.67;;
50555;SDS011;36508;52.512;13.450;2022-10-23T15:57:00;9.80;;;8.97;;
50555;SDS011;36508;52.512;13.450;2022-10-23T15:59:27;7.90;;;7.00;;
50555;SDS011;36508;52.512;13.450;2022-10-23T16:01:54;13.43;;;7.37;;
50555;SDS011;36508;52.512;13.450;2022-10-23T16:04:26;8.43;;;6.63;;
50555;SDS011;36508;52.512;13.450;2022-10-23T16:06:52;8.33;;;7.53;;
50555;SDS011;36508;52.512;13.450;2022-10-23T16:09:21;10.23;;;7.40;;
50555;SDS011;36508;52.512;13.450;2022-10-23T16:11:46;6.93;;;6.20;;
50555;SDS011;36508;52.512;13.450;2022-10-23T16:14:13;6.63;;;6.03;;
50555;SDS011;36508;52.512;13.450;2022-10-23T16:16:39;10.27;;;6.80;;
50555;SDS011;36508;52.512;13.450;2022-10-23T16:19:05;9.73;;;8.50;;
50555;SDS011;36508;52.512;13.450;2022-10-23T16:21:31;9.93;;;8.77;;
50555;SDS011;36508;52.512;13.450;2022-10-23T16:23:59;11.07;;;8.53;;